Time;durP1;ratioP1;P1;durP2;ratioP2;P2;SDS_P1;SDS_P2;PMS_P1;PMS_P2;Temp;Humidity;BMP_temperature;BMP_pressure;BME280_temperature;BME280_humidity;BME280_pressure;Samples;Min_cycle;Max_cycle;Signal;HPM_P1;HPM_P2
2023/12/12 00:04:49;;;;;;;16.92;13.02;;;;;;;;;;10288700;28;20041;-71
2023/12/12 00:09:45;;;;;;;21.00;13.75;;;;;;;;;;10290903;28;20045;-71
2023/12/12 00:14:42;;;;;;;21.02;11.90;;;;;;;;;;10289397;28;20048;-71
2023/12/12 00:19:42;;;;;;;27.35;15.32;;;;;;;;;;10291671;28;20041;-71
2023/12/12 00:24:38;;;;;;;27.48;15.57;;;;;;;;;;10301491;28;20041;-71
2023/12/12 00:29:38;;;;;;;27.48;16.38;;;;;;;;;;10311601;28;20052;-71
2023/12/12 00:34:35;;;;;;;21.30;14.35;;;;;;;;;;10313720;28;20600;-70
2023/12/12 00:39:36;;;;;;;23.00;14.07;;;;;;;;;;10315175;28;20118;-71
2023/12/12 00:44:35;;;;;;;24.35;14.38;;;;;;;;;;10301061;28;20083;-73
2023/12/12 00:49:31;;;;;;;25.73;15.68;;;;;;;;;;10304986;28;20107;-71
2023/12/12 00:54:28;;;;;;;33.28;16.05;;;;;;;;;;10301023;28;20049;-73
2023/12/12 00:59:24;;;;;;;26.92;16.08;;;;;;;;;;10309318;28;20052;-72
2023/12/12 01:04:20;;;;;;;34.13;17.45;;;;;;;;;;10289582;28;20520;-71
2023/12/12 01:09:18;;;;;;;34.67;17.25;;;;;;;;;;10307611;28;20060;-73
2023/12/12 01:14:15;;;;;;;33.20;17.67;;;;;;;;;;10287969;28;20048;-71
2023/12/12 01:19:11;;;;;;;34.78;15.95;;;;;;;;;;10305251;28;20048;-71
2023/12/12 01:24:08;;;;;;;37.38;16.63;;;;;;;;;;10309706;28;20057;-71
2023/12/12 01:29:04;;;;;;;33.13;16.08;;;;;;;;;;10312353;28;20079;-71
2023/12/12 01:34:00;;;;;;;33.45;16.23;;;;;;;;;;10297256;28;20070;-71
2023/12/12 01:38:57;;;;;;;37.67;16.27;;;;;;;;;;10303066;28;20053;-71
2023/12/12 01:43:53;;;;;;;44.25;17.42;;;;;;;;;;10304953;28;20764;-71
2023/12/12 01:48:50;;;;;;;33.40;15.80;;;;;;;;;;10291945;28;20055;-71
2023/12/12 01:53:47;;;;;;;42.83;15.57;;;;;;;;;;10309936;28;20405;-73
2023/12/12 01:58:45;;;;;;;37.20;16.73;;;;;;;;;;10303537;28;20049;-71
2023/12/12 02:03:42;;;;;;;34.42;14.98;;;;;;;;;;10299726;28;20057;-73
2023/12/12 02:08:40;;;;;;;29.55;14.18;;;;;;;;;;10310231;28;20045;-71
2023/12/12 02:13:36;;;;;;;38.28;16.42;;;;;;;;;;10313551;28;20558;-71
2023/12/12 02:18:33;;;;;;;39.17;16.58;;;;;;;;;;10301209;28;20078;-71
2023/12/12 02:23:30;;;;;;;43.78;16.52;;;;;;;;;;10296994;28;20083;-73
2023/12/12 02:28:26;;;;;;;37.38;16.27;;;;;;;;;;10285409;28;20110;-73
2023/12/12 02:33:23;;;;;;;39.75;17.95;;;;;;;;;;10295972;28;20091;-73
2023/12/12 02:38:19;;;;;;;41.35;16.65;;;;;;;;;;10307298;28;20049;-73
2023/12/12 02:43:15;;;;;;;35.70;16.85;;;;;;;;;;10305687;28;20096;-73
2023/12/12 02:48:12;;;;;;;42.60;17.90;;;;;;;;;;10297778;28;20067;-73
2023/12/12 02:53:08;;;;;;;39.65;18.80;;;;;;;;;;10308629;28;20055;-73
2023/12/12 02:58:05;;;;;;;46.42;19.30;;;;;;;;;;10296401;28;20179;-73
2023/12/12 03:03:01;;;;;;;51.67;19.55;;;;;;;;;;10285040;28;20040;-73
2023/12/12 03:07:57;;;;;;;62.47;19.58;;;;;;;;;;10304256;28;20098;-73
2023/12/12 03:12:54;;;;;;;55.17;20.38;;;;;;;;;;10309117;28;20135;-73
2023/12/12 03:17:50;;;;;;;56.33;20.48;;;;;;;;;;10292501;28;20085;-73
2023/12/12 03:22:46;;;;;;;47.20;19.52;;;;;;;;;;10304038;28;20045;-73
2023/12/12 03:27:43;;;;;;;62.38;20.60;;;;;;;;;;10312843;28;20443;-73
2023/12/12 03:32:39;;;;;;;51.72;19.90;;;;;;;;;;10308157;28;20119;-73
2023/12/12 03:37:35;;;;;;;61.40;20.60;;;;;;;;;;10312358;28;20402;-73
2023/12/12 03:42:32;;;;;;;48.78;19.90;;;;;;;;;;10319620;28;20068;-73
2023/12/12 03:47:28;;;;;;;64.90;21.33;;;;;;;;;;10302387;28;20068;-73
2023/12/12 03:52:25;;;;;;;51.47;21.25;;;;;;;;;;10309199;28;20044;-73
2023/12/12 03:57:21;;;;;;;40.35;19.95;;;;;;;;;;10291849;28;20512;-73
2023/12/12 04:02:18;;;;;;;59.70;20.38;;;;;;;;;;10311314;28;20673;-73
2023/12/12 04:07:14;;;;;;;47.65;21.20;;;;;;;;;;10298602;28;20052;-73
2023/12/12 04:12:10;;;;;;;44.75;19.92;;;;;;;;;;10310504;28;20535;-73
2023/12/12 04:17:07;;;;;;;73.80;20.67;;;;;;;;;;10305611;28;20055;-73
2023/12/12 04:22:03;;;;;;;52.40;20.52;;;;;;;;;;10316996;28;20055;-73
2023/12/12 04:27:00;;;;;;;86.20;20.67;;;;;;;;;;10321293;28;20060;-73
2023/12/12 04:31:56;;;;;;;74.28;20.92;;;;;;;;;;10311962;28;20041;-73
2023/12/12 04:36:53;;;;;;;63.80;20.35;;;;;;;;;;10304834;28;20080;-73
2023/12/12 04:41:50;;;;;;;44.50;19.55;;;;;;;;;;10314145;28;20086;-73
2023/12/12 04:46:46;;;;;;;45.33;19.52;;;;;;;;;;10313952;28;20040;-73
2023/12/12 04:51:43;;;;;;;51.25;20.02;;;;;;;;;;10294130;28;20037;-73
2023/12/12 04:56:39;;;;;;;37.33;18.17;;;;;;;;;;10306542;28;20069;-73
2023/12/12 05:01:35;;;;;;;34.90;18.05;;;;;;;;;;10301778;28;20052;-73
2023/12/12 05:06:32;;;;;;;38.42;17.95;;;;;;;;;;10291705;28;20115;-73
2023/12/12 05:11:29;;;;;;;33.15;17.70;;;;;;;;;;10302353;28;20056;-73
2023/12/12 05:16:25;;;;;;;30.50;16.77;;;;;;;;;;10314485;28;20048;-74
2023/12/12 05:21:28;;;;;;;32.78;17.05;;;;;;;;;;10295565;28;20781;-73
2023/12/12 05:26:24;;;;;;;28.48;16.55;;;;;;;;;;10295152;28;20131;-74
2023/12/12 05:31:24;;;;;;;37.53;17.15;;;;;;;;;;10299129;28;20049;-74
2023/12/12 05:36:20;;;;;;;36.85;17.83;;;;;;;;;;10307626;28;20052;-74
2023/12/12 05:41:17;;;;;;;32.97;16.67;;;;;;;;;;10289422;28;20075;-74
2023/12/12 05:46:13;;;;;;;33.33;16.88;;;;;;;;;;10302272;28;20110;-73
2023/12/12 05:51:09;;;;;;;35.70;17.67;;;;;;;;;;10305924;28;20056;-72
2023/12/12 05:56:06;;;;;;;31.25;17.95;;;;;;;;;;10297225;28;20095;-74
2023/12/12 06:01:04;;;;;;;35.88;19.25;;;;;;;;;;10304094;28;20466;-74
2023/12/12 06:06:03;;;;;;;38.83;19.85;;;;;;;;;;10308881;28;20056;-75
2023/12/12 06:11:00;;;;;;;42.13;18.98;;;;;;;;;;10297617;28;20412;-73
2023/12/12 06:15:56;;;;;;;36.70;18.70;;;;;;;;;;10288673;28;20048;-74
2023/12/12 06:20:53;;;;;;;34.10;18.15;;;;;;;;;;10294784;28;20460;-73
2023/12/12 06:25:49;;;;;;;40.75;20.73;;;;;;;;;;10306321;28;20404;-74
2023/12/12 06:30:45;;;;;;;37.22;19.13;;;;;;;;;;10302048;28;20051;-74
2023/12/12 06:35:42;;;;;;;38.60;19.65;;;;;;;;;;10289741;28;20056;-75
2023/12/12 06:40:39;;;;;;;37.30;20.27;;;;;;;;;;10290318;28;20041;-74
2023/12/12 06:45:37;;;;;;;44.28;19.00;;;;;;;;;;10286461;28;20128;-74
2023/12/12 06:50:33;;;;;;;38.03;19.30;;;;;;;;;;10301879;28;20515;-74
2023/12/12 06:55:29;;;;;;;35.55;18.20;;;;;;;;;;10296169;28;20047;-73
2023/12/12 07:00:26;;;;;;;34.05;19.20;;;;;;;;;;10305317;28;20052;-74
2023/12/12 07:05:22;;;;;;;39.10;17.95;;;;;;;;;;10306211;28;20048;-74
2023/12/12 07:10:19;;;;;;;39.45;19.38;;;;;;;;;;10303086;28;20056;-73
2023/12/12 07:15:15;;;;;;;37.95;18.95;;;;;;;;;;10297826;28;20048;-73
2023/12/12 07:20:11;;;;;;;44.42;20.05;;;;;;;;;;10278337;28;20052;-74
2023/12/12 07:25:08;;;;;;;42.63;19.35;;;;;;;;;;10300353;28;20139;-74
2023/12/12 07:30:05;;;;;;;45.05;18.70;;;;;;;;;;10298047;28;20075;-74
2023/12/12 07:35:01;;;;;;;42.55;19.77;;;;;;;;;;10307983;28;20044;-74
2023/12/12 07:39:58;;;;;;;45.50;20.58;;;;;;;;;;10301569;28;20064;-74
2023/12/12 07:44:54;;;;;;;44.08;21.88;;;;;;;;;;10293853;28;20420;-73
2023/12/12 07:49:50;;;;;;;47.30;20.58;;;;;;;;;;10300738;28;20045;-73
2023/12/12 07:54:47;;;;;;;40.22;19.15;;;;;;;;;;10279203;28;20064;-74
2023/12/12 07:59:44;;;;;;;41.30;20.20;;;;;;;;;;10300202;28;20095;-74
2023/12/12 08:04:41;;;;;;;38.53;19.83;;;;;;;;;;10291600;28;20049;-73
2023/12/12 08:09:37;;;;;;;33.47;19.15;;;;;;;;;;10305752;28;20044;-74
2023/12/12 08:14:33;;;;;;;35.10;19.70;;;;;;;;;;10297717;28;20056;-74
2023/12/12 08:19:30;;;;;;;50.03;22.33;;;;;;;;;;10296189;28;20045;-72
2023/12/12 08:24:27;;;;;;;38.58;20.35;;;;;;;;;;10298326;28;20439;-74
2023/12/12 08:29:23;;;;;;;46.22;20.23;;;;;;;;;;10304798;28;20052;-73
2023/12/12 08:34:19;;;;;;;40.45;20.65;;;;;;;;;;10304791;28;20055;-74
2023/12/12 08:39:16;;;;;;;40.78;20.15;;;;;;;;;;10284242;28;20472;-74
2023/12/12 08:44:12;;;;;;;31.77;18.55;;;;;;;;;;10299275;28;20048;-74
2023/12/12 08:49:09;;;;;;;31.27;18.92;;;;;;;;;;10305463;28;20052;-74
2023/12/12 08:54:05;;;;;;;29.25;17.92;;;;;;;;;;10301726;28;20072;-74
2023/12/12 08:59:02;;;;;;;36.15;19.40;;;;;;;;;;10294834;28;20146;-74
2023/12/12 09:03:58;;;;;;;32.47;17.83;;;;;;;;;;10310099;28;20056;-74
2023/12/12 09:08:55;;;;;;;44.65;21.10;;;;;;;;;;10305280;28;20071;-73
2023/12/12 09:13:51;;;;;;;39.25;20.70;;;;;;;;;;10304364;28;20504;-74
2023/12/12 09:18:47;;;;;;;46.17;23.40;;;;;;;;;;10307136;28;20056;-74
2023/12/12 09:23:44;;;;;;;39.10;22.17;;;;;;;;;;10304017;28;20466;-74
2023/12/12 09:28:41;;;;;;;48.58;23.38;;;;;;;;;;10295524;28;20064;-73
2023/12/12 09:33:37;;;;;;;40.80;22.27;;;;;;;;;;10292907;28;20041;-74
2023/12/12 09:38:34;;;;;;;32.75;21.00;;;;;;;;;;10295476;28;20051;-74
2023/12/12 09:43:32;;;;;;;38.28;22.85;;;;;;;;;;10304623;28;20060;-72
2023/12/12 09:48:29;;;;;;;37.65;22.30;;;;;;;;;;10296518;28;20459;-73
2023/12/12 09:53:25;;;;;;;39.33;22.85;;;;;;;;;;10272964;28;20099;-74
2023/12/12 09:58:22;;;;;;;37.00;22.08;;;;;;;;;;10300128;28;20045;-74
2023/12/12 10:03:18;;;;;;;40.45;22.42;;;;;;;;;;10295734;28;20048;-74
2023/12/12 10:08:17;;;;;;;40.40;23.48;;;;;;;;;;10303611;28;20460;-74
2023/12/12 10:13:14;;;;;;;37.22;21.30;;;;;;;;;;10280877;28;20602;-74
2023/12/12 10:18:10;;;;;;;39.15;21.80;;;;;;;;;;10293996;28;20102;-74
2023/12/12 10:23:06;;;;;;;39.85;20.98;;;;;;;;;;10295036;28;20099;-74
2023/12/12 10:28:03;;;;;;;39.95;22.42;;;;;;;;;;10300108;28;20052;-75
2023/12/12 10:32:59;;;;;;;41.08;22.27;;;;;;;;;;10308299;28;20536;-75
2023/12/12 10:37:57;;;;;;;44.35;22.60;;;;;;;;;;10303265;28;20075;-74
2023/12/12 10:42:54;;;;;;;34.85;22.30;;;;;;;;;;10301177;28;20060;-75
2023/12/12 10:47:53;;;;;;;34.97;22.05;;;;;;;;;;10301221;28;20132;-74
2023/12/12 10:52:52;;;;;;;35.22;21.88;;;;;;;;;;10306973;28;20041;-74
2023/12/12 10:57:48;;;;;;;36.65;23.15;;;;;;;;;;10302763;28;20417;-73
2023/12/12 11:02:45;;;;;;;33.17;21.75;;;;;;;;;;10305390;28;20106;-74
2023/12/12 11:07:47;;;;;;;33.25;23.05;;;;;;;;;;10288884;28;20094;-74
2023/12/12 11:12:48;;;;;;;41.03;21.00;;;;;;;;;;10297644;28;20048;-73
2023/12/12 11:17:45;;;;;;;27.50;19.38;;;;;;;;;;10280643;28;20054;-75
2023/12/12 11:22:43;;;;;;;30.48;21.48;;;;;;;;;;10280039;28;20052;-74
2023/12/12 11:27:42;;;;;;;37.08;20.73;;;;;;;;;;10296320;28;20424;-74
2023/12/12 11:32:40;;;;;;;33.58;22.33;;;;;;;;;;10287692;28;20040;-73
2023/12/12 11:37:39;;;;;;;33.13;21.35;;;;;;;;;;10300649;28;20643;-73
2023/12/12 11:42:35;;;;;;;33.17;21.30;;;;;;;;;;10300522;28;20060;-73
2023/12/12 11:47:32;;;;;;;31.50;20.25;;;;;;;;;;10293123;28;20070;-74
2023/12/12 11:52:38;;;;;;;27.02;19.15;;;;;;;;;;10291141;28;20044;-74
2023/12/12 11:57:34;;;;;;;30.38;18.83;;;;;;;;;;10304300;28;20044;-74
2023/12/12 12:02:30;;;;;;;23.50;18.02;;;;;;;;;;10279702;28;20052;-74
2023/12/12 12:07:27;;;;;;;26.02;18.25;;;;;;;;;;10303830;28;20077;-74
2023/12/12 12:12:24;;;;;;;20.85;15.35;;;;;;;;;;10299058;28;20064;-74
2023/12/12 12:17:20;;;;;;;23.42;17.13;;;;;;;;;;10280105;28;20048;-73
2023/12/12 12:22:17;;;;;;;24.90;15.20;;;;;;;;;;10290874;28;20049;-74
2023/12/12 12:27:13;;;;;;;26.17;15.65;;;;;;;;;;10291322;28;20049;-74
2023/12/12 12:32:11;;;;;;;24.63;16.23;;;;;;;;;;10308379;28;20420;-74
2023/12/12 12:37:07;;;;;;;21.95;15.07;;;;;;;;;;10297899;28;20076;-75
2023/12/12 12:42:04;;;;;;;25.30;14.07;;;;;;;;;;10290876;28;20041;-74
2023/12/12 12:47:00;;;;;;;21.73;13.45;;;;;;;;;;10309077;28;20044;-74
2023/12/12 12:51:56;;;;;;;27.45;14.23;;;;;;;;;;10295830;28;20091;-74
2023/12/12 12:56:53;;;;;;;19.20;14.00;;;;;;;;;;10290050;28;20497;-74
2023/12/12 13:01:49;;;;;;;23.58;13.07;;;;;;;;;;10302011;28;20425;-74
2023/12/12 13:06:45;;;;;;;21.80;14.65;;;;;;;;;;10306381;28;20045;-73
2023/12/12 13:11:42;;;;;;;23.38;14.40;;;;;;;;;;10293009;28;20053;-74
2023/12/12 13:16:38;;;;;;;22.85;14.10;;;;;;;;;;10309974;28;20045;-74
2023/12/12 13:21:38;;;;;;;20.50;13.82;;;;;;;;;;10303016;28;20045;-74
2023/12/12 13:26:34;;;;;;;22.27;14.60;;;;;;;;;;10313175;28;20044;-74
2023/12/12 13:31:31;;;;;;;21.80;15.45;;;;;;;;;;10312927;28;20061;-74
2023/12/12 13:36:28;;;;;;;21.10;13.95;;;;;;;;;;10305924;28;20125;-74
2023/12/12 13:41:25;;;;;;;23.10;15.73;;;;;;;;;;10299701;28;20420;-74
2023/12/12 13:46:21;;;;;;;22.73;16.05;;;;;;;;;;10292971;28;20044;-74
2023/12/12 13:51:18;;;;;;;24.80;15.60;;;;;;;;;;10303006;28;20467;-74
2023/12/12 13:56:24;;;;;;;27.90;16.63;;;;;;;;;;10304750;28;20071;-73
2023/12/12 14:01:20;;;;;;;24.45;16.27;;;;;;;;;;10291395;28;20072;-74
2023/12/12 14:06:16;;;;;;;24.42;15.23;;;;;;;;;;10303961;28;20048;-74
2023/12/12 14:11:15;;;;;;;31.38;15.10;;;;;;;;;;10299616;28;20132;-73
2023/12/12 14:16:12;;;;;;;19.58;14.38;;;;;;;;;;10300285;28;20045;-73
2023/12/12 14:21:11;;;;;;;18.20;13.77;;;;;;;;;;10297282;28;20052;-74
2023/12/12 14:26:08;;;;;;;19.40;13.38;;;;;;;;;;10294675;28;20467;-74
2023/12/12 14:31:04;;;;;;;22.17;12.75;;;;;;;;;;10285500;28;20056;-74
2023/12/12 14:36:02;;;;;;;23.27;14.48;;;;;;;;;;10293055;28;20052;-74
2023/12/12 14:40:58;;;;;;;19.08;12.07;;;;;;;;;;10306389;28;20432;-74
2023/12/12 14:45:55;;;;;;;22.20;13.75;;;;;;;;;;10284904;28;20056;-74
2023/12/12 14:50:52;;;;;;;20.90;13.90;;;;;;;;;;10297741;28;20102;-74
2023/12/12 14:55:48;;;;;;;19.65;12.43;;;;;;;;;;10298787;28;20041;-73
2023/12/12 15:00:45;;;;;;;18.75;13.63;;;;;;;;;;10306678;28;20041;-74
2023/12/12 15:05:41;;;;;;;18.42;14.07;;;;;;;;;;10321432;28;20052;-74
2023/12/12 15:10:37;;;;;;;20.45;13.43;;;;;;;;;;10331197;28;20071;-72
2023/12/12 15:15:36;;;;;;;21.48;14.43;;;;;;;;;;10326921;28;20045;-74
2023/12/12 15:20:32;;;;;;;18.95;14.32;;;;;;;;;;10331321;28;20313;-74
2023/12/12 15:25:29;;;;;;;19.25;14.15;;;;;;;;;;10333458;28;20048;-72
2023/12/12 15:30:37;;;;;;;19.98;14.02;;;;;;;;;;10332889;28;20098;-72
2023/12/12 15:35:33;;;;;;;20.45;14.80;;;;;;;;;;10312528;28;20079;-73
2023/12/12 15:40:29;;;;;;;18.05;13.30;;;;;;;;;;10320246;28;20516;-73
2023/12/12 15:45:26;;;;;;;20.83;14.32;;;;;;;;;;10317415;28;20054;-74
2023/12/12 15:50:22;;;;;;;18.40;14.07;;;;;;;;;;10334799;28;20672;-73
2023/12/12 15:55:19;;;;;;;20.77;14.35;;;;;;;;;;10319711;28;20087;-73
2023/12/12 16:00:16;;;;;;;18.85;14.25;;;;;;;;;;10335824;28;20048;-73
2023/12/12 16:05:12;;;;;;;18.88;14.40;;;;;;;;;;10336102;28;20049;-72
2023/12/12 16:10:09;;;;;;;19.92;15.38;;;;;;;;;;10345630;28;20040;-72
2023/12/12 16:15:06;;;;;;;19.15;15.23;;;;;;;;;;10340032;28;20075;-73
2023/12/12 16:20:06;;;;;;;23.42;14.10;;;;;;;;;;10316285;28;20167;-74
2023/12/12 16:25:05;;;;;;;17.90;14.63;;;;;;;;;;10315038;28;20076;-73
2023/12/12 16:30:05;;;;;;;17.45;14.30;;;;;;;;;;10321519;28;20467;-74
2023/12/12 16:35:02;;;;;;;18.98;14.85;;;;;;;;;;10318277;28;20133;-73
2023/12/12 16:39:59;;;;;;;19.50;14.38;;;;;;;;;;10322216;28;20057;-73
2023/12/12 16:44:55;;;;;;;21.73;15.32;;;;;;;;;;10306117;28;20544;-74
2023/12/12 16:49:52;;;;;;;21.23;15.27;;;;;;;;;;10316974;28;20044;-73
2023/12/12 16:54:50;;;;;;;18.63;15.15;;;;;;;;;;10312355;28;20067;-74
2023/12/12 16:59:47;;;;;;;20.90;14.98;;;;;;;;;;10306003;28;20045;-75
2023/12/12 17:04:45;;;;;;;21.90;14.57;;;;;;;;;;10318679;28;20394;-75
2023/12/12 17:09:42;;;;;;;18.20;14.50;;;;;;;;;;10305457;28;20045;-74
2023/12/12 17:14:38;;;;;;;18.73;14.77;;;;;;;;;;10285643;28;20032;-72
2023/12/12 17:19:34;;;;;;;20.10;15.27;;;;;;;;;;10308143;28;20124;-73
2023/12/12 17:24:31;;;;;;;16.48;13.57;;;;;;;;;;10301081;28;20099;-73
2023/12/12 17:29:28;;;;;;;17.08;13.90;;;;;;;;;;10302290;28;20103;-72
2023/12/12 17:34:24;;;;;;;26.02;14.77;;;;;;;;;;10292950;28;20077;-73
2023/12/12 17:39:20;;;;;;;22.15;15.02;;;;;;;;;;10307087;28;20056;-71
2023/12/12 17:44:17;;;;;;;21.95;16.52;;;;;;;;;;10288096;28;20044;-72
2023/12/12 17:49:13;;;;;;;26.75;16.83;;;;;;;;;;10301070;28;20725;-73
2023/12/12 17:54:09;;;;;;;23.25;15.18;;;;;;;;;;10305566;28;20068;-73
2023/12/12 17:59:06;;;;;;;24.17;16.60;;;;;;;;;;10310911;28;20040;-72
2023/12/12 18:04:04;;;;;;;28.35;17.65;;;;;;;;;;10311553;28;20064;-73
2023/12/12 18:09:01;;;;;;;20.70;15.63;;;;;;;;;;10314210;28;20423;-72
2023/12/12 18:14:00;;;;;;;21.52;15.27;;;;;;;;;;10289855;28;20049;-73
2023/12/12 18:18:57;;;;;;;25.45;16.30;;;;;;;;;;10307446;28;20413;-73
2023/12/12 18:23:53;;;;;;;26.75;16.70;;;;;;;;;;10291019;28;20508;-73
2023/12/12 18:28:56;;;;;;;22.02;15.02;;;;;;;;;;10295259;28;20072;-74
2023/12/12 18:33:53;;;;;;;21.73;15.55;;;;;;;;;;10298144;28;20049;-74
2023/12/12 18:38:50;;;;;;;22.90;16.45;;;;;;;;;;10296233;28;20139;-73
2023/12/12 18:43:46;;;;;;;25.60;16.33;;;;;;;;;;10298915;28;20040;-73
2023/12/12 18:48:43;;;;;;;23.70;15.85;;;;;;;;;;10281552;28;20504;-73
2023/12/12 18:53:39;;;;;;;22.60;15.32;;;;;;;;;;10297653;28;20636;-73
2023/12/12 18:58:36;;;;;;;23.80;15.05;;;;;;;;;;10278817;28;20516;-72
2023/12/12 19:03:32;;;;;;;24.42;15.48;;;;;;;;;;10295783;28;20049;-75
2023/12/12 19:08:29;;;;;;;28.90;15.32;;;;;;;;;;10300108;28;20041;-73
2023/12/12 19:13:28;;;;;;;23.25;14.98;;;;;;;;;;10298624;28;20048;-73
2023/12/12 19:18:24;;;;;;;33.53;15.70;;;;;;;;;;10291394;28;20077;-74
2023/12/12 19:23:21;;;;;;;24.98;16.13;;;;;;;;;;10295115;28;20072;-73
2023/12/12 19:28:18;;;;;;;25.02;15.63;;;;;;;;;;10292225;28;20136;-74
2023/12/12 19:33:14;;;;;;;21.73;15.00;;;;;;;;;;10301981;28;20749;-74
2023/12/12 19:38:14;;;;;;;28.13;15.15;;;;;;;;;;10298965;28;20048;-73
2023/12/12 19:43:11;;;;;;;25.67;16.45;;;;;;;;;;10297014;28;20048;-73
2023/12/12 19:48:07;;;;;;;27.60;15.73;;;;;;;;;;10294892;28;20060;-73
2023/12/12 19:53:06;;;;;;;25.83;15.43;;;;;;;;;;10287479;28;20508;-73
2023/12/12 19:58:02;;;;;;;25.50;15.27;;;;;;;;;;10296337;28;20574;-73
2023/12/12 20:02:59;;;;;;;32.55;14.32;;;;;;;;;;10292609;28;20057;-72
2023/12/12 20:07:55;;;;;;;21.17;14.55;;;;;;;;;;10297753;28;20080;-74
2023/12/12 20:12:52;;;;;;;20.98;13.80;;;;;;;;;;10294181;28;20512;-73
2023/12/12 20:17:48;;;;;;;24.25;13.88;;;;;;;;;;10302171;28;20044;-73
2023/12/12 20:22:45;;;;;;;26.77;15.75;;;;;;;;;;10301663;28;20072;-72
2023/12/12 20:27:46;;;;;;;20.58;13.63;;;;;;;;;;10297478;28;20547;-73
2023/12/12 20:32:43;;;;;;;19.30;14.25;;;;;;;;;;10285562;28;20048;-73
2023/12/12 20:37:39;;;;;;;26.50;15.20;;;;;;;;;;10296526;28;20128;-75
2023/12/12 20:42:36;;;;;;;21.45;13.75;;;;;;;;;;10305592;28;20044;-74
2023/12/12 20:47:33;;;;;;;18.85;13.43;;;;;;;;;;10305691;28;20090;-74
2023/12/12 20:52:30;;;;;;;23.83;14.27;;;;;;;;;;10307823;28;20061;-74
2023/12/12 20:57:26;;;;;;;19.65;13.77;;;;;;;;;;10310227;28;20051;-73
2023/12/12 21:02:23;;;;;;;20.42;13.90;;;;;;;;;;10299017;28;20513;-74
2023/12/12 21:07:19;;;;;;;17.63;13.43;;;;;;;;;;10313754;28;20103;-73
2023/12/12 21:12:15;;;;;;;26.27;14.65;;;;;;;;;;10295190;28;20056;-74
2023/12/12 21:17:12;;;;;;;26.70;13.85;;;;;;;;;;10289366;28;20095;-73
2023/12/12 21:22:08;;;;;;;18.17;13.77;;;;;;;;;;10308074;28;20045;-74
2023/12/12 21:27:04;;;;;;;23.55;13.75;;;;;;;;;;10297290;28;20055;-74
2023/12/12 21:32:01;;;;;;;21.27;13.82;;;;;;;;;;10313613;28;20554;-74
2023/12/12 21:36:58;;;;;;;19.20;13.75;;;;;;;;;;10299076;28;20057;-74
2023/12/12 21:41:54;;;;;;;22.40;14.10;;;;;;;;;;10303666;28;20508;-75
2023/12/12 21:46:51;;;;;;;22.10;14.80;;;;;;;;;;10307928;28;20073;-74
2023/12/12 21:51:47;;;;;;;19.23;13.55;;;;;;;;;;10312616;28;20492;-74
2023/12/12 21:56:43;;;;;;;25.40;14.43;;;;;;;;;;10304013;28;20045;-74
2023/12/12 22:01:40;;;;;;;20.20;14.02;;;;;;;;;;10308408;28;20041;-73
2023/12/12 22:06:39;;;;;;;23.63;13.60;;;;;;;;;;10293502;28;20136;-75
2023/12/12 22:11:36;;;;;;;26.85;14.68;;;;;;;;;;10307670;28;20044;-75
2023/12/12 22:16:32;;;;;;;22.65;14.10;;;;;;;;;;10293222;28;20064;-74
2023/12/12 22:21:34;;;;;;;20.80;13.70;;;;;;;;;;10301960;28;20455;-73
2023/12/12 22:26:31;;;;;;;20.10;13.77;;;;;;;;;;10301836;28;20048;-75
2023/12/12 22:31:27;;;;;;;23.55;14.38;;;;;;;;;;10307318;28;20056;-74
2023/12/12 22:36:24;;;;;;;21.52;14.30;;;;;;;;;;10303791;28;20057;-74
2023/12/12 22:41:20;;;;;;;23.15;15.85;;;;;;;;;;10300522;28;20053;-75
2023/12/12 22:46:21;;;;;;;24.67;14.10;;;;;;;;;;10291977;28;20053;-74
2023/12/12 22:51:23;;;;;;;28.95;15.40;;;;;;;;;;10299095;28;20045;-75
2023/12/12 22:56:23;;;;;;;19.98;13.40;;;;;;;;;;10284835;28;20444;-75
2023/12/12 23:01:21;;;;;;;18.02;14.13;;;;;;;;;;10298407;28;20075;-74
2023/12/12 23:06:18;;;;;;;21.23;14.65;;;;;;;;;;10301598;28;20056;-74
2023/12/12 23:11:18;;;;;;;21.10;13.80;;;;;;;;;;10286040;28;20053;-73
2023/12/12 23:16:14;;;;;;;21.63;14.10;;;;;;;;;;10304618;28;20216;-75
2023/12/12 23:21:11;;;;;;;22.75;13.73;;;;;;;;;;10298598;28;20057;-75
2023/12/12 23:26:07;;;;;;;21.25;14.05;;;;;;;;;;10303280;28;20047;-75
2023/12/12 23:31:04;;;;;;;20.33;13.75;;;;;;;;;;10296223;28;20072;-75
2023/12/12 23:36:04;;;;;;;20.60;14.27;;;;;;;;;;10283565;28;20055;-75
2023/12/12 23:41:00;;;;;;;18.45;13.85;;;;;;;;;;10305088;28;20474;-73
2023/12/12 23:45:57;;;;;;;20.90;14.27;;;;;;;;;;10296788;28;20048;-74
2023/12/12 23:50:53;;;;;;;18.02;13.95;;;;;;;;;;10305622;28;20067;-75
2023/12/12 23:55:50;;;;;;;23.27;13.98;;;;;;;;;;10300272;28;20083;-75
